sensor_id;sensor_type;location;lat;lon;timestamp;temperature;humidity
23991;DHT22;12205;50.600;4.608;2024-03-02T00:00:51;8.10;99.90
23991;DHT22;12205;50.600;4.608;2024-03-02T00:03:20;8.00;99.90
23991;DHT22;12205;50.600;4.608;2024-03-02T00:05:50;7.70;99.90
23991;DHT22;12205;50.600;4.608;2024-03-02T00:08:23;7.70;99.90
23991;DHT22;12205;50.600;4.608;2024-03-02T00:10:51;7.60;99.90
23991;DHT22;12205;50.600;4.608;2024-03-02T00:13:20;7.60;99.90
23991;DHT22;12205;50.600;4.608;2024-03-02T00:15:51;7.60;99.90
23991;DHT22;12205;50.600;4.608;2024-03-02T00:18:21;7.70;99.90
23991;DHT22;12205;50.600;4.608;2024-03-02T00:20:53;7.60;99.90
23991;DHT22;12205;50.600;4.608;2024-03-02T00:23:20;7.40;99.90
23991;DHT22;12205;50.600;4.608;2024-03-02T00:25:49;7.30;99.90
23991;DHT22;12205;50.600;4.608;2024-03-02T00:28:21;7.40;99.90
23991;DHT22;12205;50.600;4.608;2024-03-02T00:30:58;7.30;99.90
23991;DHT22;12205;50.600;4.608;2024-03-02T00:33:31;7.10;99.90
23991;DHT22;12205;50.600;4.608;2024-03-02T00:35:58;7.00;99.90
23991;DHT22;12205;50.600;4.608;2024-03-02T00:38:26;7.10;99.90
23991;DHT22;12205;50.600;4.608;2024-03-02T00:40:54;7.30;99.90
23991;DHT22;12205;50.600;4.608;2024-03-02T00:43:45;7.10;99.90
23991;DHT22;12205;50.600;4.608;2024-03-02T00:46:13;7.10;99.90
23991;DHT22;12205;50.600;4.608;2024-03-02T00:48:48;7.20;99.90
23991;DHT22;12205;50.600;4.608;2024-03-02T00:51:17;7.00;99.90
23991;DHT22;12205;50.600;4.608;2024-03-02T00:53:44;7.30;99.90
23991;DHT22;12205;50.600;4.608;2024-03-02T00:56:11;7.30;99.90
23991;DHT22;12205;50.600;4.608;2024-03-02T00:58:39;7.30;99.90
23991;DHT22;12205;50.600;4.608;2024-03-02T01:01:06;7.10;99.90
23991;DHT22;12205;50.600;4.608;2024-03-02T01:03:33;7.20;99.90
23991;DHT22;12205;50.600;4.608;2024-03-02T01:06:02;7.20;99.90
23991;DHT22;12205;50.600;4.608;2024-03-02T01:08:29;7.40;99.90
23991;DHT22;12205;50.600;4.608;2024-03-02T01:10:56;7.40;99.90
23991;DHT22;12205;50.600;4.608;2024-03-02T01:13:23;7.50;99.90
23991;DHT22;12205;50.600;4.608;2024-03-02T01:15:50;7.60;99.90
23991;DHT22;12205;50.600;4.608;2024-03-02T01:18:17;7.60;99.90
23991;DHT22;12205;50.600;4.608;2024-03-02T01:20:44;7.50;99.90
23991;DHT22;12205;50.600;4.608;2024-03-02T01:23:12;7.50;99.90
23991;DHT22;12205;50.600;4.608;2024-03-02T01:25:39;7.50;99.90
23991;DHT22;12205;50.600;4.608;2024-03-02T01:28:06;7.60;99.90
23991;DHT22;12205;50.600;4.608;2024-03-02T01:30:33;7.70;99.90
23991;DHT22;12205;50.600;4.608;2024-03-02T01:33:00;7.80;99.90
23991;DHT22;12205;50.600;4.608;2024-03-02T01:35:27;7.80;99.90
23991;DHT22;12205;50.600;4.608;2024-03-02T01:37:54;7.40;99.90
23991;DHT22;12205;50.600;4.608;2024-03-02T01:40:23;7.50;99.90
23991;DHT22;12205;50.600;4.608;2024-03-02T01:42:52;7.40;99.90
23991;DHT22;12205;50.600;4.608;2024-03-02T01:45:19;7.30;99.90
23991;DHT22;12205;50.600;4.608;2024-03-02T01:47:47;7.20;99.90
23991;DHT22;12205;50.600;4.608;2024-03-02T01:50:14;7.20;99.90
23991;DHT22;12205;50.600;4.608;2024-03-02T01:52:41;7.20;99.90
23991;DHT22;12205;50.600;4.608;2024-03-02T01:55:09;7.30;99.90
23991;DHT22;12205;50.600;4.608;2024-03-02T01:57:39;7.40;99.90
23991;DHT22;12205;50.600;4.608;2024-03-02T02:00:07;7.50;99.90
23991;DHT22;12205;50.600;4.608;2024-03-02T02:02:38;7.40;99.90
23991;DHT22;12205;50.600;4.608;2024-03-02T02:05:05;7.40;99.90
23991;DHT22;12205;50.600;4.608;2024-03-02T02:07:32;7.30;99.90
23991;DHT22;12205;50.600;4.608;2024-03-02T02:10:00;7.10;99.90
23991;DHT22;12205;50.600;4.608;2024-03-02T02:12:28;7.00;99.90
23991;DHT22;12205;50.600;4.608;2024-03-02T02:14:56;7.10;99.90
23991;DHT22;12205;50.600;4.608;2024-03-02T02:17:23;7.20;99.90
23991;DHT22;12205;50.600;4.608;2024-03-02T02:19:50;7.30;99.90
23991;DHT22;12205;50.600;4.608;2024-03-02T02:22:18;7.20;99.90
23991;DHT22;12205;50.600;4.608;2024-03-02T02:24:45;7.10;99.90
23991;DHT22;12205;50.600;4.608;2024-03-02T02:27:12;7.10;99.90
23991;DHT22;12205;50.600;4.608;2024-03-02T02:29:40;7.20;99.90
23991;DHT22;12205;50.600;4.608;2024-03-02T02:32:07;7.40;99.90
23991;DHT22;12205;50.600;4.608;2024-03-02T02:34:34;7.50;99.90
23991;DHT22;12205;50.600;4.608;2024-03-02T02:37:01;7.70;99.90
23991;DHT22;12205;50.600;4.608;2024-03-02T02:39:29;7.40;99.90
23991;DHT22;12205;50.600;4.608;2024-03-02T02:41:56;7.40;99.90
23991;DHT22;12205;50.600;4.608;2024-03-02T02:44:23;7.20;99.90
23991;DHT22;12205;50.600;4.608;2024-03-02T02:46:50;7.30;99.90
23991;DHT22;12205;50.600;4.608;2024-03-02T02:49:17;7.30;99.90
23991;DHT22;12205;50.600;4.608;2024-03-02T02:51:44;7.50;99.90
23991;DHT22;12205;50.600;4.608;2024-03-02T02:54:11;7.40;99.90
23991;DHT22;12205;50.600;4.608;2024-03-02T02:56:40;7.50;99.90
23991;DHT22;12205;50.600;4.608;2024-03-02T02:59:06;7.50;99.90
23991;DHT22;12205;50.600;4.608;2024-03-02T03:01:44;7.50;99.90
23991;DHT22;12205;50.600;4.608;2024-03-02T03:04:12;7.60;99.90
23991;DHT22;12205;50.600;4.608;2024-03-02T03:06:38;7.50;99.90
23991;DHT22;12205;50.600;4.608;2024-03-02T03:09:05;7.40;99.90
23991;DHT22;12205;50.600;4.608;2024-03-02T03:11:32;7.20;99.90
23991;DHT22;12205;50.600;4.608;2024-03-02T03:13:59;7.10;99.90
23991;DHT22;12205;50.600;4.608;2024-03-02T03:16:27;7.30;99.90
23991;DHT22;12205;50.600;4.608;2024-03-02T03:18:55;7.30;99.90
23991;DHT22;12205;50.600;4.608;2024-03-02T03:21:22;7.30;99.90
23991;DHT22;12205;50.600;4.608;2024-03-02T03:23:49;7.30;99.90
23991;DHT22;12205;50.600;4.608;2024-03-02T03:26:16;7.50;99.90
23991;DHT22;12205;50.600;4.608;2024-03-02T03:28:42;7.40;99.90
23991;DHT22;12205;50.600;4.608;2024-03-02T03:31:10;7.40;99.90
23991;DHT22;12205;50.600;4.608;2024-03-02T03:33:37;7.40;99.90
23991;DHT22;12205;50.600;4.608;2024-03-02T03:36:05;7.40;99.90
23991;DHT22;12205;50.600;4.608;2024-03-02T03:38:32;7.30;99.90
23991;DHT22;12205;50.600;4.608;2024-03-02T03:40:59;7.10;99.90
23991;DHT22;12205;50.600;4.608;2024-03-02T03:43:26;7.20;99.90
23991;DHT22;12205;50.600;4.608;2024-03-02T03:45:53;7.30;99.90
23991;DHT22;12205;50.600;4.608;2024-03-02T03:48:20;7.40;99.90
23991;DHT22;12205;50.600;4.608;2024-03-02T03:50:47;7.40;99.90
23991;DHT22;12205;50.600;4.608;2024-03-02T03:53:15;7.50;99.90
23991;DHT22;12205;50.600;4.608;2024-03-02T03:55:42;7.50;99.90
23991;DHT22;12205;50.600;4.608;2024-03-02T03:58:09;7.50;99.90
23991;DHT22;12205;50.600;4.608;2024-03-02T04:00:36;7.50;99.90
23991;DHT22;12205;50.600;4.608;2024-03-02T04:03:03;7.40;99.90
23991;DHT22;12205;50.600;4.608;2024-03-02T04:05:30;7.40;99.90
23991;DHT22;12205;50.600;4.608;2024-03-02T04:07:57;7.30;99.90
23991;DHT22;12205;50.600;4.608;2024-03-02T04:10:25;7.40;99.90
23991;DHT22;12205;50.600;4.608;2024-03-02T04:12:52;7.20;99.90
23991;DHT22;12205;50.600;4.608;2024-03-02T04:15:19;7.20;99.90
23991;DHT22;12205;50.600;4.608;2024-03-02T04:17:46;7.30;99.90
23991;DHT22;12205;50.600;4.608;2024-03-02T04:20:13;7.20;99.90
23991;DHT22;12205;50.600;4.608;2024-03-02T04:22:40;7.30;99.90
23991;DHT22;12205;50.600;4.608;2024-03-02T04:25:07;7.40;99.90
23991;DHT22;12205;50.600;4.608;2024-03-02T04:27:36;7.60;99.90
23991;DHT22;12205;50.600;4.608;2024-03-02T04:30:04;7.70;99.90
23991;DHT22;12205;50.600;4.608;2024-03-02T04:32:32;7.80;99.90
23991;DHT22;12205;50.600;4.608;2024-03-02T04:34:59;7.70;99.90
23991;DHT22;12205;50.600;4.608;2024-03-02T04:37:26;7.70;99.90
23991;DHT22;12205;50.600;4.608;2024-03-02T04:39:52;7.70;99.90
23991;DHT22;12205;50.600;4.608;2024-03-02T04:42:19;7.70;99.90
23991;DHT22;12205;50.600;4.608;2024-03-02T04:44:48;7.60;99.90
23991;DHT22;12205;50.600;4.608;2024-03-02T04:47:14;7.80;99.90
23991;DHT22;12205;50.600;4.608;2024-03-02T04:49:41;7.50;99.90
23991;DHT22;12205;50.600;4.608;2024-03-02T04:52:09;7.40;99.90
23991;DHT22;12205;50.600;4.608;2024-03-02T04:54:36;7.30;99.90
23991;DHT22;12205;50.600;4.608;2024-03-02T04:57:23;7.30;99.90
23991;DHT22;12205;50.600;4.608;2024-03-02T04:59:51;7.30;99.90
23991;DHT22;12205;50.600;4.608;2024-03-02T05:02:18;7.30;99.90
23991;DHT22;12205;50.600;4.608;2024-03-02T05:04:45;7.20;99.90
23991;DHT22;12205;50.600;4.608;2024-03-02T05:07:13;7.20;99.90
23991;DHT22;12205;50.600;4.608;2024-03-02T05:09:40;7.10;99.90
23991;DHT22;12205;50.600;4.608;2024-03-02T05:12:08;7.10;99.90
23991;DHT22;12205;50.600;4.608;2024-03-02T05:14:56;7.30;99.90
23991;DHT22;12205;50.600;4.608;2024-03-02T05:17:23;7.20;99.90
23991;DHT22;12205;50.600;4.608;2024-03-02T05:19:49;7.10;99.90
23991;DHT22;12205;50.600;4.608;2024-03-02T05:22:16;7.10;99.90
23991;DHT22;12205;50.600;4.608;2024-03-02T05:24:43;7.00;99.90
23991;DHT22;12205;50.600;4.608;2024-03-02T05:27:10;6.90;99.90
23991;DHT22;12205;50.600;4.608;2024-03-02T05:29:37;7.00;99.90
23991;DHT22;12205;50.600;4.608;2024-03-02T05:32:06;6.80;99.90
23991;DHT22;12205;50.600;4.608;2024-03-02T05:34:33;6.80;99.90
23991;DHT22;12205;50.600;4.608;2024-03-02T05:37:01;6.90;99.90
23991;DHT22;12205;50.600;4.608;2024-03-02T05:39:27;7.10;99.90
23991;DHT22;12205;50.600;4.608;2024-03-02T05:41:54;7.10;99.90
23991;DHT22;12205;50.600;4.608;2024-03-02T05:44:21;6.90;99.90
23991;DHT22;12205;50.600;4.608;2024-03-02T05:46:48;6.80;99.90
23991;DHT22;12205;50.600;4.608;2024-03-02T05:49:16;7.00;99.90
23991;DHT22;12205;50.600;4.608;2024-03-02T05:51:43;6.80;99.90
23991;DHT22;12205;50.600;4.608;2024-03-02T05:54:10;6.80;99.90
23991;DHT22;12205;50.600;4.608;2024-03-02T05:56:37;6.80;99.90
23991;DHT22;12205;50.600;4.608;2024-03-02T05:59:04;6.90;99.90
23991;DHT22;12205;50.600;4.608;2024-03-02T06:01:38;6.90;99.90
23991;DHT22;12205;50.600;4.608;2024-03-02T06:04:05;6.80;99.90
23991;DHT22;12205;50.600;4.608;2024-03-02T06:06:33;6.80;99.90
23991;DHT22;12205;50.600;4.608;2024-03-02T06:09:00;6.80;99.90
23991;DHT22;12205;50.600;4.608;2024-03-02T06:11:28;6.80;99.90
23991;DHT22;12205;50.600;4.608;2024-03-02T06:13:55;6.90;99.90
23991;DHT22;12205;50.600;4.608;2024-03-02T06:16:22;6.70;99.90
23991;DHT22;12205;50.600;4.608;2024-03-02T06:18:49;6.80;99.90
23991;DHT22;12205;50.600;4.608;2024-03-02T06:21:17;6.90;99.90
23991;DHT22;12205;50.600;4.608;2024-03-02T06:23:46;6.90;99.90
23991;DHT22;12205;50.600;4.608;2024-03-02T06:26:12;6.90;99.90
23991;DHT22;12205;50.600;4.608;2024-03-02T06:28:39;6.90;99.90
23991;DHT22;12205;50.600;4.608;2024-03-02T06:31:06;6.80;99.90
23991;DHT22;12205;50.600;4.608;2024-03-02T06:33:33;6.80;99.90
23991;DHT22;12205;50.600;4.608;2024-03-02T06:36:00;6.70;99.90
23991;DHT22;12205;50.600;4.608;2024-03-02T06:38:27;6.60;99.90
23991;DHT22;12205;50.600;4.608;2024-03-02T06:40:56;6.70;99.90
23991;DHT22;12205;50.600;4.608;2024-03-02T06:43:22;6.80;99.90
23991;DHT22;12205;50.600;4.608;2024-03-02T06:45:49;6.80;99.90
23991;DHT22;12205;50.600;4.608;2024-03-02T06:48:16;6.80;99.90
23991;DHT22;12205;50.600;4.608;2024-03-02T06:50:45;6.70;99.90
23991;DHT22;12205;50.600;4.608;2024-03-02T06:53:13;6.80;99.90
23991;DHT22;12205;50.600;4.608;2024-03-02T06:55:43;7.00;99.90
23991;DHT22;12205;50.600;4.608;2024-03-02T06:58:11;7.00;99.90
23991;DHT22;12205;50.600;4.608;2024-03-02T07:00:38;7.00;99.90
23991;DHT22;12205;50.600;4.608;2024-03-02T07:03:05;6.80;99.90
23991;DHT22;12205;50.600;4.608;2024-03-02T07:05:32;6.70;99.90
23991;DHT22;12205;50.600;4.608;2024-03-02T07:07:58;6.80;99.90
23991;DHT22;12205;50.600;4.608;2024-03-02T07:10:27;6.70;99.90
23991;DHT22;12205;50.600;4.608;2024-03-02T07:12:54;6.60;99.90
23991;DHT22;12205;50.600;4.608;2024-03-02T07:15:22;6.70;99.90
23991;DHT22;12205;50.600;4.608;2024-03-02T07:18:08;6.80;99.90
23991;DHT22;12205;50.600;4.608;2024-03-02T07:20:35;6.90;99.90
23991;DHT22;12205;50.600;4.608;2024-03-02T07:23:04;6.90;99.90
23991;DHT22;12205;50.600;4.608;2024-03-02T07:25:32;7.10;99.90
23991;DHT22;12205;50.600;4.608;2024-03-02T07:27:59;7.30;99.90
23991;DHT22;12205;50.600;4.608;2024-03-02T07:30:27;7.40;99.90
23991;DHT22;12205;50.600;4.608;2024-03-02T07:32:54;7.40;99.90
23991;DHT22;12205;50.600;4.608;2024-03-02T07:35:21;7.10;99.90
23991;DHT22;12205;50.600;4.608;2024-03-02T07:37:52;7.10;99.90
23991;DHT22;12205;50.600;4.608;2024-03-02T07:40:19;7.10;99.90
23991;DHT22;12205;50.600;4.608;2024-03-02T07:42:46;7.20;99.90
23991;DHT22;12205;50.600;4.608;2024-03-02T07:45:13;7.30;99.90
23991;DHT22;12205;50.600;4.608;2024-03-02T07:47:41;7.20;99.90
23991;DHT22;12205;50.600;4.608;2024-03-02T07:50:09;7.10;99.90
23991;DHT22;12205;50.600;4.608;2024-03-02T07:52:36;7.30;99.90
23991;DHT22;12205;50.600;4.608;2024-03-02T07:55:03;7.60;99.90
23991;DHT22;12205;50.600;4.608;2024-03-02T07:57:31;7.70;99.90
23991;DHT22;12205;50.600;4.608;2024-03-02T07:59:58;7.80;99.90
23991;DHT22;12205;50.600;4.608;2024-03-02T08:02:25;7.70;99.90
23991;DHT22;12205;50.600;4.608;2024-03-02T08:04:53;7.80;99.90
23991;DHT22;12205;50.600;4.608;2024-03-02T08:07:20;7.90;99.90
23991;DHT22;12205;50.600;4.608;2024-03-02T08:09:47;8.00;99.90
23991;DHT22;12205;50.600;4.608;2024-03-02T08:12:14;8.00;99.90
23991;DHT22;12205;50.600;4.608;2024-03-02T08:14:41;8.10;99.90
23991;DHT22;12205;50.600;4.608;2024-03-02T08:17:08;7.90;99.90
23991;DHT22;12205;50.600;4.608;2024-03-02T08:19:37;8.00;99.90
23991;DHT22;12205;50.600;4.608;2024-03-02T08:22:05;8.00;99.90
23991;DHT22;12205;50.600;4.608;2024-03-02T08:24:33;8.00;99.90
23991;DHT22;12205;50.600;4.608;2024-03-02T08:27:00;8.20;99.90
23991;DHT22;12205;50.600;4.608;2024-03-02T08:29:27;8.20;99.90
23991;DHT22;12205;50.600;4.608;2024-03-02T08:31:54;8.40;99.90
23991;DHT22;12205;50.600;4.608;2024-03-02T08:34:21;8.40;99.90
23991;DHT22;12205;50.600;4.608;2024-03-02T08:36:48;8.50;99.90
23991;DHT22;12205;50.600;4.608;2024-03-02T08:39:16;8.60;99.90
23991;DHT22;12205;50.600;4.608;2024-03-02T08:41:45;8.70;99.90
23991;DHT22;12205;50.600;4.608;2024-03-02T08:44:12;8.70;99.90
23991;DHT22;12205;50.600;4.608;2024-03-02T08:46:40;8.70;99.90
23991;DHT22;12205;50.600;4.608;2024-03-02T08:49:07;8.80;99.90
23991;DHT22;12205;50.600;4.608;2024-03-02T08:51:34;8.90;99.90
23991;DHT22;12205;50.600;4.608;2024-03-02T08:54:01;9.00;99.90
23991;DHT22;12205;50.600;4.608;2024-03-02T08:56:31;8.90;99.90
23991;DHT22;12205;50.600;4.608;2024-03-02T08:58:58;9.00;99.90
23991;DHT22;12205;50.600;4.608;2024-03-02T09:01:25;9.00;99.90
23991;DHT22;12205;50.600;4.608;2024-03-02T09:03:52;9.10;99.90
23991;DHT22;12205;50.600;4.608;2024-03-02T09:06:19;9.20;99.90
23991;DHT22;12205;50.600;4.608;2024-03-02T09:08:46;9.30;99.90
23991;DHT22;12205;50.600;4.608;2024-03-02T09:11:15;9.30;99.90
23991;DHT22;12205;50.600;4.608;2024-03-02T09:13:43;9.40;99.90
23991;DHT22;12205;50.600;4.608;2024-03-02T09:16:10;9.50;99.90
23991;DHT22;12205;50.600;4.608;2024-03-02T09:18:37;9.50;99.90
23991;DHT22;12205;50.600;4.608;2024-03-02T09:21:04;9.80;99.90
23991;DHT22;12205;50.600;4.608;2024-03-02T09:23:32;9.80;99.90
23991;DHT22;12205;50.600;4.608;2024-03-02T09:25:59;9.80;99.90
23991;DHT22;12205;50.600;4.608;2024-03-02T09:28:26;9.70;99.90
23991;DHT22;12205;50.600;4.608;2024-03-02T09:30:54;9.90;99.90
23991;DHT22;12205;50.600;4.608;2024-03-02T09:33:21;9.90;99.90
23991;DHT22;12205;50.600;4.608;2024-03-02T09:35:49;10.10;99.90
23991;DHT22;12205;50.600;4.608;2024-03-02T09:38:16;10.10;99.90
23991;DHT22;12205;50.600;4.608;2024-03-02T09:40:43;10.40;99.90
23991;DHT22;12205;50.600;4.608;2024-03-02T09:43:10;10.50;99.90
23991;DHT22;12205;50.600;4.608;2024-03-02T09:45:37;10.70;99.90
23991;DHT22;12205;50.600;4.608;2024-03-02T09:48:07;10.80;99.90
23991;DHT22;12205;50.600;4.608;2024-03-02T09:50:34;10.90;99.90
23991;DHT22;12205;50.600;4.608;2024-03-02T09:53:01;11.10;99.90
23991;DHT22;12205;50.600;4.608;2024-03-02T09:55:28;11.20;99.90
23991;DHT22;12205;50.600;4.608;2024-03-02T09:57:55;11.00;99.90
23991;DHT22;12205;50.600;4.608;2024-03-02T10:00:22;10.80;99.90
23991;DHT22;12205;50.600;4.608;2024-03-02T10:02:50;10.60;99.90
23991;DHT22;12205;50.600;4.608;2024-03-02T10:05:25;10.60;99.90
23991;DHT22;12205;50.600;4.608;2024-03-02T10:08:00;10.80;99.90
23991;DHT22;12205;50.600;4.608;2024-03-02T10:10:35;10.80;99.90
23991;DHT22;12205;50.600;4.608;2024-03-02T10:13:06;11.00;99.90
23991;DHT22;12205;50.600;4.608;2024-03-02T10:15:34;11.10;99.90
23991;DHT22;12205;50.600;4.608;2024-03-02T10:18:02;11.00;99.90
23991;DHT22;12205;50.600;4.608;2024-03-02T10:20:31;11.00;99.90
23991;DHT22;12205;50.600;4.608;2024-03-02T10:23:10;10.90;99.90
23991;DHT22;12205;50.600;4.608;2024-03-02T10:25:38;11.10;99.90
23991;DHT22;12205;50.600;4.608;2024-03-02T10:28:05;11.10;99.90
23991;DHT22;12205;50.600;4.608;2024-03-02T10:30:32;11.10;99.90
23991;DHT22;12205;50.600;4.608;2024-03-02T10:33:00;11.30;99.90
23991;DHT22;12205;50.600;4.608;2024-03-02T10:35:28;11.40;99.90
23991;DHT22;12205;50.600;4.608;2024-03-02T10:37:58;11.80;99.90
23991;DHT22;12205;50.600;4.608;2024-03-02T10:40:26;12.00;99.90
23991;DHT22;12205;50.600;4.608;2024-03-02T10:42:53;12.30;99.90
23991;DHT22;12205;50.600;4.608;2024-03-02T10:45:21;12.40;99.90
23991;DHT22;12205;50.600;4.608;2024-03-02T10:47:48;12.50;99.90
23991;DHT22;12205;50.600;4.608;2024-03-02T10:50:16;12.70;99.90
23991;DHT22;12205;50.600;4.608;2024-03-02T10:52:43;12.70;99.90
23991;DHT22;12205;50.600;4.608;2024-03-02T10:55:11;12.90;99.90
23991;DHT22;12205;50.600;4.608;2024-03-02T10:57:42;13.00;99.90
23991;DHT22;12205;50.600;4.608;2024-03-02T11:00:13;12.90;99.90
23991;DHT22;12205;50.600;4.608;2024-03-02T11:02:49;12.90;99.90
23991;DHT22;12205;50.600;4.608;2024-03-02T11:05:26;13.30;99.90
23991;DHT22;12205;50.600;4.608;2024-03-02T11:07:57;13.90;99.90
23991;DHT22;12205;50.600;4.608;2024-03-02T11:10:32;13.70;99.90
23991;DHT22;12205;50.600;4.608;2024-03-02T11:13:02;13.70;99.90
23991;DHT22;12205;50.600;4.608;2024-03-02T11:15:31;13.60;99.90
23991;DHT22;12205;50.600;4.608;2024-03-02T11:18:03;13.50;99.90
23991;DHT22;12205;50.600;4.608;2024-03-02T11:20:31;13.60;99.90
23991;DHT22;12205;50.600;4.608;2024-03-02T11:23:04;13.40;99.90
23991;DHT22;12205;50.600;4.608;2024-03-02T11:25:33;13.30;99.90
23991;DHT22;12205;50.600;4.608;2024-03-02T11:28:02;13.40;99.90
23991;DHT22;12205;50.600;4.608;2024-03-02T11:30:48;13.50;99.90
23991;DHT22;12205;50.600;4.608;2024-03-02T11:33:15;13.60;99.90
23991;DHT22;12205;50.600;4.608;2024-03-02T11:35:49;13.70;99.90
23991;DHT22;12205;50.600;4.608;2024-03-02T11:38:18;13.80;99.90
23991;DHT22;12205;50.600;4.608;2024-03-02T11:40:46;13.90;99.90
23991;DHT22;12205;50.600;4.608;2024-03-02T11:43:14;13.80;99.90
23991;DHT22;12205;50.600;4.608;2024-03-02T11:45:42;14.20;99.90
23991;DHT22;12205;50.600;4.608;2024-03-02T11:48:11;14.50;99.90
23991;DHT22;12205;50.600;4.608;2024-03-02T11:50:41;14.50;99.90
23991;DHT22;12205;50.600;4.608;2024-03-02T11:53:10;14.40;99.90
23991;DHT22;12205;50.600;4.608;2024-03-02T11:55:39;14.30;99.90
23991;DHT22;12205;50.600;4.608;2024-03-02T11:58:08;14.20;99.90
23991;DHT22;12205;50.600;4.608;2024-03-02T12:00:35;13.90;99.90
23991;DHT22;12205;50.600;4.608;2024-03-02T12:03:03;14.00;99.90
23991;DHT22;12205;50.600;4.608;2024-03-02T12:05:31;14.30;99.90
23991;DHT22;12205;50.600;4.608;2024-03-02T12:07:58;14.40;99.90
23991;DHT22;12205;50.600;4.608;2024-03-02T12:10:26;13.70;99.90
23991;DHT22;12205;50.600;4.608;2024-03-02T12:12:56;13.40;99.90
23991;DHT22;12205;50.600;4.608;2024-03-02T12:15:25;13.60;99.90
23991;DHT22;12205;50.600;4.608;2024-03-02T12:17:54;13.80;99.90
23991;DHT22;12205;50.600;4.608;2024-03-02T12:20:21;14.00;99.90
23991;DHT22;12205;50.600;4.608;2024-03-02T12:22:50;14.10;99.90
23991;DHT22;12205;50.600;4.608;2024-03-02T12:25:18;14.40;99.90
23991;DHT22;12205;50.600;4.608;2024-03-02T12:27:45;14.40;99.90
23991;DHT22;12205;50.600;4.608;2024-03-02T12:30:13;14.30;99.90
23991;DHT22;12205;50.600;4.608;2024-03-02T12:32:41;14.40;99.90
23991;DHT22;12205;50.600;4.608;2024-03-02T12:35:09;14.60;99.90
23991;DHT22;12205;50.600;4.608;2024-03-02T12:37:43;14.60;99.90
23991;DHT22;12205;50.600;4.608;2024-03-02T12:40:11;15.00;99.90
23991;DHT22;12205;50.600;4.608;2024-03-02T12:42:38;15.70;99.90
23991;DHT22;12205;50.600;4.608;2024-03-02T12:45:05;16.50;99.90
23991;DHT22;12205;50.600;4.608;2024-03-02T12:47:32;16.30;99.90
23991;DHT22;12205;50.600;4.608;2024-03-02T12:50:01;16.30;99.90
23991;DHT22;12205;50.600;4.608;2024-03-02T12:52:29;15.40;99.90
23991;DHT22;12205;50.600;4.608;2024-03-02T12:54:58;15.80;99.90
23991;DHT22;12205;50.600;4.608;2024-03-02T12:57:25;15.80;99.90
23991;DHT22;12205;50.600;4.608;2024-03-02T12:59:58;18.20;99.90
23991;DHT22;12205;50.600;4.608;2024-03-02T13:02:27;22.80;99.90
23991;DHT22;12205;50.600;4.608;2024-03-02T13:04:55;22.00;99.90
23991;DHT22;12205;50.600;4.608;2024-03-02T13:07:24;20.50;99.90
23991;DHT22;12205;50.600;4.608;2024-03-02T13:09:51;20.60;99.90
23991;DHT22;12205;50.600;4.608;2024-03-02T13:12:19;23.90;99.90
23991;DHT22;12205;50.600;4.608;2024-03-02T13:14:48;26.40;98.50
23991;DHT22;12205;50.600;4.608;2024-03-02T13:17:17;27.60;97.10
23991;DHT22;12205;50.600;4.608;2024-03-02T13:19:51;29.70;92.40
23991;DHT22;12205;50.600;4.608;2024-03-02T13:22:19;27.60;80.80
23991;DHT22;12205;50.600;4.608;2024-03-02T13:24:48;27.20;84.80
23991;DHT22;12205;50.600;4.608;2024-03-02T13:27:15;27.80;83.60
23991;DHT22;12205;50.600;4.608;2024-03-02T13:29:45;26.20;83.70
23991;DHT22;12205;50.600;4.608;2024-03-02T13:32:12;24.10;89.10
23991;DHT22;12205;50.600;4.608;2024-03-02T13:34:39;24.30;90.20
23991;DHT22;12205;50.600;4.608;2024-03-02T13:37:06;23.90;85.70
23991;DHT22;12205;50.600;4.608;2024-03-02T13:39:33;21.20;92.10
23991;DHT22;12205;50.600;4.608;2024-03-02T13:42:07;19.80;93.20
23991;DHT22;12205;50.600;4.608;2024-03-02T13:44:35;18.50;95.40
23991;DHT22;12205;50.600;4.608;2024-03-02T13:47:02;17.10;98.60
23991;DHT22;12205;50.600;4.608;2024-03-02T13:49:29;15.90;99.90
23991;DHT22;12205;50.600;4.608;2024-03-02T13:52:02;15.90;99.90
23991;DHT22;12205;50.600;4.608;2024-03-02T13:54:37;16.10;99.90
23991;DHT22;12205;50.600;4.608;2024-03-02T13:57:04;16.20;99.90
23991;DHT22;12205;50.600;4.608;2024-03-02T13:59:32;16.10;99.90
23991;DHT22;12205;50.600;4.608;2024-03-02T14:02:00;15.70;99.90
23991;DHT22;12205;50.600;4.608;2024-03-02T14:04:26;15.10;99.90
23991;DHT22;12205;50.600;4.608;2024-03-02T14:06:54;14.80;99.90
23991;DHT22;12205;50.600;4.608;2024-03-02T14:09:22;14.70;99.90
23991;DHT22;12205;50.600;4.608;2024-03-02T14:11:50;14.60;99.90
23991;DHT22;12205;50.600;4.608;2024-03-02T14:14:17;14.50;99.90
23991;DHT22;12205;50.600;4.608;2024-03-02T14:16:45;14.50;99.90
23991;DHT22;12205;50.600;4.608;2024-03-02T14:19:12;14.10;99.90
23991;DHT22;12205;50.600;4.608;2024-03-02T14:21:40;14.20;99.90
23991;DHT22;12205;50.600;4.608;2024-03-02T14:24:07;14.30;99.90
23991;DHT22;12205;50.600;4.608;2024-03-02T14:26:34;14.40;99.90
23991;DHT22;12205;50.600;4.608;2024-03-02T14:29:02;14.40;99.90
23991;DHT22;12205;50.600;4.608;2024-03-02T14:31:29;14.50;99.90
23991;DHT22;12205;50.600;4.608;2024-03-02T14:33:58;14.50;99.90
23991;DHT22;12205;50.600;4.608;2024-03-02T14:36:25;14.70;99.90
23991;DHT22;12205;50.600;4.608;2024-03-02T14:38:53;14.60;99.90
23991;DHT22;12205;50.600;4.608;2024-03-02T14:41:20;14.50;99.90
23991;DHT22;12205;50.600;4.608;2024-03-02T14:43:47;14.60;99.90
23991;DHT22;12205;50.600;4.608;2024-03-02T14:46:15;14.60;99.90
23991;DHT22;12205;50.600;4.608;2024-03-02T14:48:43;14.40;99.90
23991;DHT22;12205;50.600;4.608;2024-03-02T14:51:12;14.40;99.90
23991;DHT22;12205;50.600;4.608;2024-03-02T14:53:39;14.30;99.90
23991;DHT22;12205;50.600;4.608;2024-03-02T14:56:06;14.40;99.90
23991;DHT22;12205;50.600;4.608;2024-03-02T14:58:33;14.50;99.90
23991;DHT22;12205;50.600;4.608;2024-03-02T15:01:01;14.60;99.90
23991;DHT22;12205;50.600;4.608;2024-03-02T15:03:28;14.60;99.90
23991;DHT22;12205;50.600;4.608;2024-03-02T15:05:55;14.70;99.90
23991;DHT22;12205;50.600;4.608;2024-03-02T15:08:23;14.40;99.90
23991;DHT22;12205;50.600;4.608;2024-03-02T15:10:50;14.50;99.90
23991;DHT22;12205;50.600;4.608;2024-03-02T15:13:17;14.40;99.90
23991;DHT22;12205;50.600;4.608;2024-03-02T15:15:44;14.20;99.90
23991;DHT22;12205;50.600;4.608;2024-03-02T15:18:11;14.40;99.90
23991;DHT22;12205;50.600;4.608;2024-03-02T15:20:38;14.40;99.90
23991;DHT22;12205;50.600;4.608;2024-03-02T15:23:06;14.50;99.90
23991;DHT22;12205;50.600;4.608;2024-03-02T15:25:34;14.70;99.90
23991;DHT22;12205;50.600;4.608;2024-03-02T15:28:01;14.60;99.90
23991;DHT22;12205;50.600;4.608;2024-03-02T15:30:28;14.70;99.90
23991;DHT22;12205;50.600;4.608;2024-03-02T15:32:55;14.70;99.90
23991;DHT22;12205;50.600;4.608;2024-03-02T15:35:23;14.50;99.90
23991;DHT22;12205;50.600;4.608;2024-03-02T15:37:49;14.40;99.90
23991;DHT22;12205;50.600;4.608;2024-03-02T15:40:16;14.30;99.90
23991;DHT22;12205;50.600;4.608;2024-03-02T15:42:45;14.10;99.90
23991;DHT22;12205;50.600;4.608;2024-03-02T15:45:12;14.00;99.90